Asheville, NC (28804)

5:41 AM EDT on July 05, 2015 (GMT -0400)
Sherwood Heights | | Change Station
CLOSE
Current Station
Personal Weather Station
Location: Asheville, NC
Elevation: 2497 ft
Nearby Weather Stations

Elev 2497 ft 35.65 °N, 82.55 °W | Updated 5 seconds ago

Mostly Cloudy
Mostly Cloudy
64.5 °F
Feels Like 64.5 °F
N
0.0
Wind Variable Wind from NE
Gusts 0.0 mph

Today
High -- | Low -- °F
--% Chance of Precip.
Yesterday
High -- | Low -- °F
Precip. -- in
6:19 AM 8:49 PM
Waning Gibbous, 86% visible
Pressure 30.05 in
Visibility 8.0 miles
Clouds Few 11000 ft
Dew Point 64 °F
Humidity 98%
Rainfall 0.00 in
Snow Depth Not available.
UV 0 out of 12
Pollen .50 out of 12
Air Quality Not available.
Flu Activity Not available.
METAR KAVL 050854Z AUTO 00000KT 8SM FEW110 19/18 A3012 RMK AO2 RAE06 SLP174 P0000 60003 T01940178 58004

More Conditions Fewer Conditions

Pressure 30.05 in
Visibility 8.0 miles
Clouds Few 11000 ft
Dew Point 64 °F
Humidity 98%
Rainfall 0.00 in
Snow Depth Not available.
UV 0 out of 12
Pollen .50 out of 12
Air Quality Not available.
Flu Activity Not available.
METAR KAVL 050854Z AUTO 00000KT 8SM FEW110 19/18 A3012 RMK AO2 RAE06 SLP174 P0000 60003 T01940178 58004

More Conditions Fewer Conditions

10-Day Weather Forecast

×

Almanac

Astronomy

Jul. 05, 2015 Rise Set
Actual Time
Civil Twilight
Nautical Twilight
Astronomical Twilight
Moon
Length of Visible Light
Length of Day
Tomorrow will be .
, % of the Moon is Illuminated

Today's Extremes

State Highs State Lows

Community

WunderPhotos

Upload Photos

1,835,218 photos uploaded!

WunderBlogs® & News

Nearby

Air Quality

  Air Quality AQ Index Pollutant
Not available.

Snow Depth

Station Depth Elevation

Earthquake Activity

City Distance Mag. Time & Date
Minimum magnitude displayed is 2.5.

Coastal Water Temperatures

Place Temperature

Stations

Nearby Weather Stations

Station Location Temp. Windchill Dew Point Humidity Wind Precip. Elev Updated Type